Godman Army Air Field
KFTK : now visible

Airfield :











YOU CAN JOIN US ON...

 
LOGIN :

Register | Disclaimer

   EN    FR    IT 

 









Legend :    VFR   Marginal VFR   IFR   Intensive IFR   Very Intensive IFR
Visi :
Ceiling :
>= 8 km
>= 3000ft
5 to 8 km
1000 to 3000 ft
1500m to 5 km
500 to 1000 ft
800 to 1500m
200 to 500 ft
< 800m
< 200 ft
Symbols :   Thunderstorms  Fog  Heavy snow  Heavy precipitations  Wind > 20 kt






- Airport Elevation : 756 ft


KFTK - Godman Army Air Field

CURRENT METAR :
  • 181159Z 18017G24KT 10SM BKN033 BKN044 BKN070 OVC085 09/00 A3000 RMK PK WND 17026/34 SLP165 60001 70001 T00920001 10101 20057 57036 $

EXPIRED METARs :
  • 181109Z 17015G23KT 10SM BKN036 10/M02 A3002 RMK SLP172 $
  • 181056Z AUTO 17015G23KT 10SM +RA BKN036 10/M02 A3003 RMK AO2 PK WND 17026/41 SLP175 P0000 T00961024 $
  • 181040Z AUTO 17018G25KT 10SM +RA BKN038 BKN080 09/M02 A3003 RMK AO2 SLP176 $
  • 181006Z AUTO 18015KT 10SM +RA SCT035 BKN080 09/M01 A3005 RMK AO2 PRESFR SLP183 $
  • 180956Z AUTO 17015KT 10SM +RA SCT036 BKN080 08/M01 A3007 RMK AO2 SLP190 P0001 T00811014 $
  • 180934Z AUTO 16011KT 10SM -RA OVC036 07/01 A3007 RMK AO2 PRESFR SLP190 $
  • 180916Z AUTO 17011G17KT 10SM -RA OVC037 07/01 A3009 RMK AO2 SLP197 $

TAF TAF KFTK
Valid from the 18 at 09:00 until the 19 at 15:00 UTC


180900Z 1809/1915 18012G18KT 8000 -SHRA OVC035 WS020/18050KT QNH2997INS
TEMPO 1811/1815 18020G25KT OVC015
BECMG 1814/1815 22015G25KT 8000 -SHRA OVC010 WS020/18050KT QNH2990INS
TEMPO 1815/1823 25025G35KT 510003
BECMG 1822/1823 28015G35KT 9999 NSW BKN020 520003 QNH2998INS
BECMG 1905/1906 28015G30KT 9999 SCT025 520002 QNH3007INS
BECMG 1912/1913 30020G25KT 9999 FEW025 520002 QNH3018INS TX11/1821Z TNM05/1909Z



MET'MAP, your aeronautical weather chart ! - Copyright ORBIFLY December 2007 - Disclaimer

ORBIFLY MET'MAP TEAM :

Programming & Development : Alexandra Zaïnal
Concept & original design : Baudouin d'Aumeries
Assistance for programming : Marc-Olivier Méhu
Technical & hardware support : Manuel Goepfert

Contact : metmap@orbifly.com




SOURCES & CREDITS :

   NOAA       Earth
Advisory